Time;durP1;ratioP1;P1;durP2;ratioP2;P2;SDS_P1;SDS_P2;PMS_P1;PMS_P2;Temp;Humidity;BMP_temperature;BMP_pressure;BME280_temperature;BME280_humidity;BME280_pressure;Samples;Min_cycle;Max_cycle;Signal;HPM_P1;HPM_P2
2022/08/22 00:02:56;;;;;;;4.82;3.70;;;19.20;99.90;;;17.75;100.00;99263.88;10286842;28;97713;-86
2022/08/22 00:09:16;;;;;;;8.65;4.30;;;19.20;99.90;;;17.80;100.00;99273.88;10258030;28;96711;-86
2022/08/22 00:14:36;;;;;;;7.50;4.47;;;19.30;99.90;;;17.83;100.00;99268.84;10280585;28;98860;-86
2022/08/22 00:20:18;;;;;;;5.03;3.77;;;19.30;99.90;;;17.87;100.00;99272.72;10286770;28;96631;-86
2022/08/22 00:25:47;;;;;;;6.78;3.80;;;19.40;99.90;;;17.95;100.00;99273.38;10272029;28;97356;-86
2022/08/22 00:31:15;;;;;;;;;;;19.50;99.90;;;17.97;100.00;99273.94;10278982;28;98639;-87
2022/08/22 00:36:31;;;;;;;6.55;3.65;;;19.50;99.90;;;17.97;100.00;99276.63;10279990;28;97012;-88
2022/08/22 00:42:11;;;;;;;5.85;3.42;;;19.50;99.90;;;17.97;100.00;99271.25;10284490;28;97140;-87
2022/08/22 00:47:44;;;;;;;4.78;3.35;;;19.50;99.90;;;17.92;100.00;99275.47;10284546;28;98160;-89
2022/08/22 00:53:21;;;;;;;4.15;2.97;;;19.40;99.90;;;17.85;100.00;99271.28;10247892;28;98345;-88
2022/08/22 00:58:58;;;;;;;6.28;3.25;;;19.40;99.90;;;17.80;100.00;99269.31;10286311;28;96745;-87
2022/08/22 01:04:57;;;;;;;3.17;2.40;;;19.30;99.90;;;17.74;100.00;99267.56;10271903;28;96916;-87
2022/08/22 01:10:46;;;;;;;4.18;2.60;;;19.30;99.90;;;17.66;100.00;99260.69;10289660;28;96743;-88
2022/08/22 01:16:02;;;;;;;4.55;2.42;;;19.20;99.90;;;17.58;100.00;99263.75;10270369;28;98318;-89
2022/08/22 01:21:29;;;;;;;4.93;2.95;;;19.10;99.90;;;17.53;100.00;99260.13;10274971;28;98344;-90
2022/08/22 01:27:02;;;;;;;3.97;2.80;;;19.00;99.90;;;17.49;100.00;99261.63;10271325;28;96869;-90
2022/08/22 01:33:02;;;;;;;4.50;2.45;;;19.00;99.90;;;17.48;100.00;99246.59;10289951;28;98215;-90
2022/08/22 01:38:45;;;;;;;5.90;3.10;;;19.00;99.90;;;17.47;100.00;99255.69;10287592;28;98397;-90
2022/08/22 01:44:40;;;;;;;5.07;2.38;;;19.00;99.90;;;17.47;100.00;99261.88;10283259;28;98778;-91
2022/08/22 01:49:54;;;;;;;7.20;3.08;;;19.00;99.90;;;17.48;100.00;99262.69;10234297;28;98131;-90
2022/08/22 01:55:06;;;;;;;5.00;3.00;;;19.00;99.90;;;17.51;100.00;99268.44;10273652;28;96663;-89
2022/08/22 02:00:18;;;;;;;5.83;2.83;;;19.10;99.90;;;17.53;100.00;99260.94;10270265;28;96865;-90
2022/08/22 02:06:22;;;;;;;4.45;2.45;;;19.10;99.90;;;17.48;100.00;99252.78;10281772;28;98024;-93
2022/08/22 02:11:39;;;;;;;5.00;2.80;;;19.10;99.90;;;17.41;100.00;99240.53;10283303;28;96804;-91
2022/08/22 02:16:50;;;;;;;4.13;3.00;;;18.90;99.90;;;17.40;100.00;99239.72;10283773;28;97282;-92
2022/08/22 02:22:03;;;;;;;4.75;3.42;;;18.90;99.90;;;17.41;100.00;99240.53;10276000;28;96777;-92
2022/08/22 02:27:14;;;;;;;6.55;3.72;;;18.90;99.90;;;17.41;100.00;99243.22;10250983;28;98605;-90
2022/08/22 02:32:44;;;;;;;5.78;3.30;;;19.00;99.90;;;17.43;100.00;99241.91;10290453;28;97285;-92
2022/08/22 02:38:23;;;;;;;7.13;3.58;;;19.00;99.90;;;17.44;100.00;99246.22;10289579;28;98350;-91
2022/08/22 02:43:41;;;;;;;4.38;3.50;;;19.00;99.90;;;17.46;100.00;99243.31;10273677;28;98114;-91
2022/08/22 02:48:54;;;;;;;6.30;4.18;;;19.00;99.90;;;17.50;100.00;99241.78;10271328;28;97310;-91
2022/08/22 02:54:37;;;;;;;7.88;5.45;;;19.10;99.90;;;17.54;100.00;99248.31;10281751;28;98214;-92
2022/08/22 03:00:20;;;;;;;8.50;4.50;;;19.10;99.90;;;17.59;100.00;99243.06;10290175;28;96852;-94
2022/08/22 03:05:37;;;;;;;7.32;4.78;;;19.20;99.90;;;17.61;100.00;99238.25;10289309;28;98330;-93
2022/08/22 03:11:09;;;;;;;9.32;5.30;;;19.20;99.90;;;17.63;100.00;99245.03;10268267;28;98322;-94
2022/08/22 03:16:20;;;;;;;8.80;4.28;;;19.20;99.90;;;17.67;100.00;99248.06;10275719;28;97315;-95
2022/08/22 03:21:40;;;;;;;;;;;19.30;99.90;;;17.70;100.00;99255.66;10273280;28;98458;-93
2022/08/22 03:27:02;;;;;;;6.22;4.05;;;19.30;99.90;;;17.70;100.00;99254.84;10270641;28;98191;-92
2022/08/22 03:32:05;;;;;;;6.82;3.75;;;19.30;99.90;;;17.70;100.00;99261.03;10267560;28;98274;-92
2022/08/22 03:37:25;;;;;;;10.15;4.80;;;19.30;99.90;;;17.71;100.00;99256.47;10266404;28;97291;-93
2022/08/22 03:43:02;;;;;;;7.75;4.95;;;19.30;99.90;;;17.71;100.00;99254.59;10269884;28;98331;-93
2022/08/22 03:48:50;;;;;;;5.95;4.63;;;19.30;99.90;;;17.76;100.00;99259.31;10255435;28;97481;-93
2022/08/22 03:54:18;;;;;;;7.85;4.78;;;19.40;99.90;;;17.76;100.00;99260.13;10285904;28;97854;-95
2022/08/22 03:59:58;;;;;;;10.10;5.97;;;19.40;99.90;;;17.81;100.00;99264.75;10263722;28;97196;-95
2022/08/22 04:05:49;;;;;;;11.73;5.57;;;19.40;99.90;;;17.84;100.00;99262.41;10252668;28;98125;-93
2022/08/22 04:11:38;;;;;;;7.35;5.40;;;19.40;99.90;;;17.87;100.00;99275.41;10281218;28;96794;-94
2022/08/22 04:17:13;;;;;;;8.30;4.97;;;19.50;99.90;;;17.94;100.00;99274.44;10279429;28;96781;-94
2022/08/22 04:23:10;;;;;;;7.30;5.07;;;19.50;99.90;;;17.98;100.00;99273.72;10260495;28;96995;-93
2022/08/22 04:28:21;;;;;;;12.35;4.95;;;19.60;99.90;;;18.02;100.00;99279.44;10277830;28;98126;-91
2022/08/22 04:33:38;;;;;;;8.77;5.18;;;19.60;99.90;;;18.06;100.00;99275.22;10280660;28;98242;-94
2022/08/22 04:38:51;;;;;;;8.32;4.60;;;19.60;99.90;;;18.11;100.00;99278.84;10274032;28;97630;-92
2022/08/22 04:44:04;;;;;;;8.45;4.95;;;19.70;99.90;;;18.15;100.00;99281.84;10263073;28;97172;-90
2022/08/22 04:49:33;;;;;;;7.25;5.53;;;19.70;99.90;;;18.21;100.00;99291.63;10265029;28;98028;-90
2022/08/22 04:54:37;;;;;;;10.37;4.93;;;19.80;99.90;;;18.28;100.00;99295.00;10277842;28;98462;-90
2022/08/22 04:59:41;;;;;;;7.65;4.75;;;19.90;99.90;;;18.34;100.00;99291.34;10288763;28;97231;-91
2022/08/22 05:04:55;;;;;;;6.63;4.63;;;19.90;99.90;;;18.35;100.00;99290.31;10261481;28;97254;-89
2022/08/22 05:10:02;;;;;;;7.85;4.85;;;20.00;99.90;;;18.35;100.00;99287.63;10269210;28;96675;-90
2022/08/22 05:15:35;;;;;;;6.95;5.40;;;19.90;99.90;;;18.40;100.00;99295.75;10261885;28;98814;-90
2022/08/22 05:20:40;;;;;;;9.20;5.32;;;19.90;99.90;;;18.46;100.00;99302.88;10267164;28;98220;-90
2022/08/22 05:25:47;;;;;;;5.45;4.53;;;20.00;99.90;;;18.51;100.00;99304.84;10249412;28;97366;-91
2022/08/22 05:30:52;;;;;;;76.38;9.85;;;20.00;99.90;;;18.55;100.00;99311.38;10263002;28;96818;-89
2022/08/22 05:36:10;;;;;;;21.05;5.68;;;20.10;99.90;;;18.59;100.00;99322.47;10260439;28;96777;-89
2022/08/22 05:41:23;;;;;;;8.10;5.32;;;20.10;99.90;;;18.63;100.00;99319.06;10247684;28;97414;-88
2022/08/22 05:46:50;;;;;;;7.07;5.22;;;20.20;99.90;;;18.70;100.00;99316.25;10260237;28;98385;-89
2022/08/22 05:52:25;;;;;;;11.50;5.90;;;20.30;99.90;;;18.77;100.00;99334.94;10265601;28;97899;-88
2022/08/22 05:57:35;;;;;;;7.93;5.20;;;20.40;99.90;;;18.83;100.00;99333.94;10276980;28;98038;-88
2022/08/22 06:02:44;;;;;;;9.77;4.90;;;20.50;99.90;;;18.89;100.00;99335.69;10248929;28;98661;-88
2022/08/22 06:07:49;;;;;;;7.53;5.07;;;20.50;99.90;;;18.92;100.00;99343.28;10283203;28;98704;-88
2022/08/22 06:13:10;;;;;;;12.38;5.30;;;20.50;99.90;;;18.95;100.00;99346.31;10294735;28;97392;-88
2022/08/22 06:18:19;;;;;;;5.70;5.03;;;20.60;99.90;;;19.01;100.00;99346.38;10268281;28;98658;-89
2022/08/22 06:23:35;;;;;;;8.20;5.50;;;20.60;99.90;;;19.09;100.00;99346.00;10256462;28;98432;-88
2022/08/22 06:28:46;;;;;;;7.88;5.57;;;20.70;99.90;;;19.14;100.00;99348.78;10269103;28;96950;-88
2022/08/22 06:34:09;;;;;;;11.15;6.50;;;20.80;99.90;;;19.20;100.00;99345.09;10273109;28;96769;-89
2022/08/22 06:39:37;;;;;;;7.38;6.45;;;20.90;99.90;;;19.27;100.00;99361.91;10277971;28;98227;-94
2022/08/22 06:45:06;;;;;;;11.50;7.25;;;20.90;99.90;;;19.32;100.00;99353.09;10274601;28;96954;-89
2022/08/22 06:50:18;;;;;;;8.70;6.20;;;21.00;99.90;;;19.39;100.00;99359.94;10271272;28;97367;-89
2022/08/22 06:55:25;;;;;;;9.15;6.82;;;21.00;99.90;;;19.44;100.00;99362.72;10275552;28;98480;-89
2022/08/22 07:00:28;;;;;;;20.15;7.50;;;21.10;99.90;;;19.49;100.00;99362.81;10273513;28;97257;-89
2022/08/22 07:05:39;;;;;;;9.73;6.07;;;21.10;99.90;;;19.55;100.00;99365.56;10255890;28;96638;-89
2022/08/22 07:11:07;;;;;;;18.80;7.88;;;21.20;99.90;;;19.63;100.00;99366.00;10288650;28;96871;-90
2022/08/22 07:16:11;;;;;;;26.83;7.25;;;21.30;99.90;;;19.73;100.00;99366.16;10277696;28;96880;-90
2022/08/22 07:21:30;;;;;;;9.68;6.53;;;21.40;99.90;;;19.78;100.00;99373.47;10270151;28;96858;-89
2022/08/22 07:26:58;;;;;;;20.05;8.35;;;21.50;99.90;;;19.82;100.00;99374.63;10257327;28;97150;-90
2022/08/22 07:32:27;;;;;;;10.23;7.45;;;21.50;99.90;;;19.85;100.00;99379.53;10283303;28;98217;-91
2022/08/22 07:37:49;;;;;;;11.15;8.00;;;21.50;99.90;;;19.88;100.00;99379.03;10268275;28;98928;-90
2022/08/22 07:43:45;;;;;;;9.02;7.55;;;21.60;99.90;;;19.99;100.00;99372.72;10286545;28;96807;-88
2022/08/22 07:49:06;;;;;;;17.65;7.35;;;21.70;99.90;;;20.03;100.00;99371.16;10273910;28;96845;-91
2022/08/22 07:54:34;;;;;;;15.48;8.35;;;21.70;99.90;;;20.07;100.00;99382.25;10262992;28;96722;-91
2022/08/22 07:59:46;;;;;;;16.15;8.90;;;21.80;99.90;;;20.07;100.00;99382.25;10284554;28;97052;-89
2022/08/22 08:04:53;;;;;;;21.70;8.13;;;21.80;99.90;;;20.18;100.00;99383.19;10255053;28;98614;-88
2022/08/22 08:10:10;;;;;;;12.68;7.55;;;21.90;99.90;;;20.28;100.00;99377.94;10251943;28;97460;-89
2022/08/22 08:15:20;;;;;;;16.70;8.40;;;21.90;99.90;;;20.33;100.00;99383.38;10245642;28;99410;-88
2022/08/22 08:20:26;;;;;;;10.65;8.18;;;22.00;99.90;;;20.38;100.00;99378.03;10243621;28;98147;-87
2022/08/22 08:25:32;;;;;;;22.52;8.02;;;22.00;99.90;;;20.52;100.00;99387.44;10256675;28;98567;-85
2022/08/22 08:30:50;;;;;;;12.05;8.25;;;22.10;99.90;;;20.58;100.00;99388.31;10241012;28;98714;-85
2022/08/22 08:36:14;;;;;;;16.27;8.73;;;22.20;99.90;;;20.69;100.00;99386.50;10269982;28;97439;-89
2022/08/22 08:41:29;;;;;;;9.80;8.80;;;22.40;99.90;;;20.75;100.00;99388.19;10255231;28;97553;-89
2022/08/22 08:47:35;;;;;;;9.48;7.60;;;22.40;99.90;;;20.92;100.00;99380.81;10268692;28;96674;-88
2022/08/22 08:52:49;;;;;;;18.25;8.90;;;22.60;99.90;;;20.97;100.00;99383.56;10218473;28;98641;-89
2022/08/22 08:58:32;;;;;;;28.42;10.18;;;22.70;99.90;;;20.97;100.00;99378.16;10278314;28;96643;-89
2022/08/22 09:04:13;;;;;;;13.13;8.25;;;22.70;99.90;;;21.02;100.00;99377.41;10285519;28;98688;-89
2022/08/22 09:09:59;;;;;;;14.02;9.77;;;22.70;99.90;;;21.18;100.00;99375.66;10273955;28;96732;-89
2022/08/22 09:15:20;;;;;;;17.58;9.63;;;22.80;99.90;;;21.32;100.00;99377.69;10282812;28;98293;-89
2022/08/22 09:21:14;;;;;;;18.08;9.60;;;22.90;99.90;;;21.53;100.00;99372.44;10251742;28;96721;-89
2022/08/22 09:26:56;;;;;;;18.40;10.18;;;23.10;99.90;;;21.84;100.00;99370.75;10284284;28;96675;-89
2022/08/22 09:32:27;;;;;;;18.55;9.00;;;23.40;99.90;;;21.97;100.00;99366.78;10275552;28;97258;-90
2022/08/22 09:37:51;;;;;;;12.57;8.50;;;23.60;99.90;;;22.08;100.00;99368.47;10269549;28;98141;-88
2022/08/22 09:43:23;;;;;;;16.05;8.65;;;23.70;99.90;;;22.14;100.00;99362.84;10279303;28;97147;-89
2022/08/22 09:49:00;;;;;;;13.83;8.00;;;23.80;99.90;;;22.16;98.25;99367.97;10259102;28;97758;-85
2022/08/22 09:54:24;;;;;;;30.17;9.40;;;23.90;99.90;;;22.17;96.38;99369.59;10296472;28;96659;-88
2022/08/22 10:00:26;;;;;;;13.35;8.18;;;23.90;99.90;;;22.19;96.22;99364.75;10262978;28;98564;-87
2022/08/22 10:05:45;;;;;;;19.83;8.73;;;23.90;99.90;;;22.20;94.22;99363.66;10272852;28;97061;-89
2022/08/22 10:11:18;;;;;;;29.73;10.48;;;23.90;99.90;;;22.20;93.68;99365.56;10270548;28;96810;-88
2022/08/22 10:16:45;;;;;;;11.75;8.35;;;23.90;99.90;;;22.22;94.06;99364.22;10275793;28;97396;-89
2022/08/22 10:22:07;;;;;;;15.60;7.63;;;23.90;99.90;;;22.29;94.81;99363.97;10292431;28;96748;-88
2022/08/22 10:27:52;;;;;;;23.85;9.10;;;23.90;99.90;;;22.35;95.21;99369.13;10289454;28;97838;-88
2022/08/22 10:33:28;;;;;;;9.73;6.40;;;24.00;99.90;;;22.30;92.44;99365.59;10249174;28;96702;-87
2022/08/22 10:38:52;;;;;;;19.73;6.93;;;24.00;99.90;;;22.14;91.08;99365.53;10277941;28;96774;-90
2022/08/22 10:44:22;;;;;;;16.13;6.93;;;23.90;99.90;;;22.12;90.29;99377.69;10262335;28;96648;-85
2022/08/22 10:49:58;;;;;;;10.60;5.45;;;23.80;99.90;;;22.13;88.63;99380.16;10270675;28;97321;-86
2022/08/22 10:55:19;;;;;;;8.88;5.40;;;23.80;99.90;;;22.21;90.14;99367.19;10267910;28;97431;-88
2022/08/22 11:00:50;;;;;;;14.70;5.60;;;23.90;99.90;;;22.42;90.26;99374.28;10276097;28;97016;-86
2022/08/22 11:06:04;;;;;;;10.27;6.00;;;24.00;99.90;;;22.66;88.46;99361.09;10290098;28;96636;-90
2022/08/22 11:11:31;;;;;;;17.75;5.75;;;24.30;99.90;;;22.82;88.96;99368.19;10269769;28;96820;-88
2022/08/22 11:17:02;;;;;;;12.35;5.13;;;24.50;99.90;;;23.10;90.00;99364.19;10287667;28;97209;-88
2022/08/22 11:22:36;;;;;;;10.50;5.60;;;24.70;99.90;;;23.39;89.37;99360.91;10267514;28;96686;-86
2022/08/22 11:27:55;;;;;;;14.45;5.15;;;25.10;99.90;;;23.67;87.93;99357.66;10288752;28;96594;-85
2022/08/22 11:32:58;;;;;;;20.58;5.93;;;25.30;99.90;;;23.84;84.85;99353.81;10291130;28;96716;-85
2022/08/22 11:38:25;;;;;;;5.53;4.68;;;25.50;99.90;;;23.97;82.86;99364.09;10264845;28;96806;-84
2022/08/22 11:43:56;;;;;;;10.57;4.80;;;25.70;99.90;;;24.10;79.04;99349.94;10298152;28;96894;-84
2022/08/22 11:49:30;;;;;;;32.03;6.32;;;25.80;99.90;;;24.13;77.23;99341.25;10265938;28;98281;-84
2022/08/22 11:55:15;;;;;;;10.18;4.82;;;25.90;99.90;;;24.11;76.44;99334.47;10288740;28;96659;-84
2022/08/22 12:00:46;;;;;;;7.35;4.95;;;25.80;99.90;;;24.13;78.44;99332.28;10246555;28;97332;-84
2022/08/22 12:05:57;;;;;;;;;;;25.90;99.90;;;24.15;74.13;99340.97;10275224;28;98319;-83
2022/08/22 12:11:33;;;;;;;28.25;6.13;;;26.00;99.90;;;24.16;73.84;99335.25;10273737;28;96645;-84
2022/08/22 12:16:52;;;;;;;16.35;5.72;;;26.10;99.90;;;24.08;73.64;99335.03;10285122;28;97434;-88
2022/08/22 12:22:29;;;;;;;5.30;4.80;;;26.00;99.90;;;23.92;77.27;99342.41;10283247;28;98438;-86
2022/08/22 12:28:18;;;;;;;7.60;5.63;;;25.80;99.90;;;23.71;78.71;99339.75;10289389;28;97246;-88
2022/08/22 12:34:05;;;;;;;6.78;4.93;;;25.60;99.90;;;23.63;80.66;99328.63;10275092;28;97649;-89
2022/08/22 12:39:40;;;;;;;8.50;5.68;;;25.40;99.90;;;23.82;80.47;99326.97;10265704;28;97452;-91
2022/08/22 12:45:10;;;;;;;6.55;5.35;;;25.60;99.90;;;24.04;79.53;99316.56;10286113;28;96710;-89
2022/08/22 12:50:34;;;;;;;11.27;5.53;;;25.80;99.90;;;24.25;79.35;99314.59;10274674;28;96889;-90
2022/08/22 12:56:19;;;;;;;12.50;6.18;;;26.10;99.90;;;24.29;77.73;99309.44;10275133;28;98690;-86
2022/08/22 13:01:24;;;;;;;16.80;6.18;;;26.10;99.90;;;24.32;79.28;99319.72;10258897;28;97451;-90
2022/08/22 13:06:36;;;;;;;6.88;6.18;;;26.10;99.90;;;24.58;82.39;99314.97;10270968;28;96685;-84
2022/08/22 13:11:42;;;;;;;31.50;7.65;;;26.30;99.90;;;24.80;76.96;99301.78;10259459;28;96645;-88
2022/08/22 13:16:53;;;;;;;11.02;5.97;;;26.60;99.90;;;24.89;74.41;99293.84;10269791;28;96678;-88
2022/08/22 13:22:08;;;;;;;17.20;6.38;;;26.60;99.90;;;25.06;71.52;99296.16;10244153;28;96718;-87
2022/08/22 13:27:46;;;;;;;10.27;6.00;;;26.80;99.90;;;25.17;69.85;99300.41;10246964;28;98776;-87
2022/08/22 13:33:23;;;;;;;8.20;6.20;;;27.00;99.90;;;25.28;74.44;99315.56;10272871;28;96522;-85
2022/08/22 13:38:38;;;;;;;39.33;8.07;;;27.10;99.90;;;25.38;70.79;99306.50;10272475;28;98948;-90
2022/08/22 13:44:06;;;;;;;19.33;7.22;;;27.20;99.90;;;25.37;68.57;99315.75;10283060;28;97106;-89
2022/08/22 13:49:16;;;;;;;8.48;6.65;;;27.20;99.50;;;25.21;72.97;99312.34;10272657;28;98465;-90
2022/08/22 13:55:05;;;;;;;9.00;5.90;;;27.00;99.10;;;25.14;70.92;99316.50;10290078;28;96780;-89
2022/08/22 14:00:17;;;;;;;7.60;5.57;;;26.90;99.30;;;25.14;74.72;99320.03;10133431;28;97030;-90
2022/08/22 14:05:45;;;;;;;6.57;4.75;;;26.90;99.00;;;25.12;75.64;99295.03;10274941;28;99591;-89
2022/08/22 14:11:20;;;;;;;6.80;5.95;;;26.80;99.10;;;25.11;73.44;99290.69;10251143;28;97006;-89
2022/08/22 14:16:38;;;;;;;6.30;5.22;;;26.80;99.30;;;25.17;71.54;99286.03;10286499;28;98280;-90
2022/08/22 14:21:52;;;;;;;9.43;6.53;;;26.80;98.30;;;25.00;69.97;99289.13;10272229;28;97431;-91
2022/08/22 14:27:26;;;;;;;6.97;5.88;;;26.70;98.90;;;24.67;72.36;99288.84;10283959;28;96684;-90
2022/08/22 14:32:50;;;;;;;7.63;5.63;;;26.40;99.90;;;24.34;74.76;99300.41;10287202;28;96620;-90
2022/08/22 14:38:26;;;;;;;5.47;4.70;;;26.00;99.90;;;24.16;73.54;99297.25;10295171;28;98507;-90
2022/08/22 14:43:44;;;;;;;6.03;4.32;;;25.80;99.90;;;24.23;74.29;99295.06;10271411;28;97666;-89
2022/08/22 14:49:25;;;;;;;5.03;3.97;;;25.70;99.90;;;24.45;74.46;99302.81;10268011;28;100861;-91
2022/08/22 14:54:32;;;;;;;6.88;3.90;;;25.90;99.90;;;24.53;73.85;99304.97;10271953;28;97352;-89
2022/08/22 14:59:51;;;;;;;5.50;3.72;;;26.00;99.90;;;24.33;73.06;99310.47;10284951;28;96781;-90
2022/08/22 15:05:11;;;;;;;4.30;3.33;;;25.80;99.90;;;23.90;73.90;99312.03;10273315;28;97721;-90
2022/08/22 15:10:26;;;;;;;5.65;2.97;;;25.40;99.90;;;23.52;74.41;99329.75;10254576;28;96642;-91
2022/08/22 15:15:49;;;;;;;3.25;2.55;;;25.00;99.90;;;23.44;76.60;99337.31;10290514;28;97846;-89
2022/08/22 15:21:04;;;;;;;5.38;3.00;;;24.80;99.90;;;23.38;76.20;99334.88;10267910;28;96773;-91
2022/08/22 15:26:15;;;;;;;4.32;2.80;;;24.70;99.90;;;23.26;76.93;99335.16;10280337;28;98545;-91
2022/08/22 15:31:20;;;;;;;3.83;2.08;;;24.60;99.90;;;23.08;77.15;99333.81;10269962;28;97416;-89
2022/08/22 15:36:25;;;;;;;7.05;3.30;;;24.40;99.90;;;22.81;77.64;99327.81;10252060;28;99609;-89
2022/08/22 15:41:31;;;;;;;6.38;3.40;;;24.10;99.90;;;22.50;78.83;99337.78;10273152;28;96684;-90
2022/08/22 15:47:35;;;;;;;5.90;3.60;;;23.80;99.90;;;22.14;80.04;99352.00;10285703;28;96933;-88
2022/08/22 15:53:16;;;;;;;4.43;3.30;;;23.50;99.90;;;21.86;81.88;99376.72;10291024;28;96783;-89
2022/08/22 15:58:23;;;;;;;7.93;3.13;;;23.20;99.90;;;21.69;82.97;99367.94;10271447;28;97170;-90
2022/08/22 16:03:30;;;;;;;3.88;3.45;;;23.00;99.90;;;21.57;83.86;99365.44;10266186;28;98271;-90
2022/08/22 16:08:50;;;;;;;4.15;3.75;;;22.90;99.90;;;21.43;84.31;99373.19;10275400;28;96575;-89
2022/08/22 16:14:19;;;;;;;4.97;3.40;;;22.80;99.90;;;21.31;84.90;99383.38;10251308;28;99929;-86
2022/08/22 16:19:27;;;;;;;5.18;4.22;;;22.70;99.90;;;21.24;85.83;99375.44;10275651;28;97612;-87
2022/08/22 16:24:33;;;;;;;6.78;4.70;;;22.60;99.90;;;21.15;86.40;99397.78;10255522;28;98488;-86
2022/08/22 16:29:40;;;;;;;5.03;4.20;;;22.50;99.90;;;21.06;86.94;99381.22;10259451;28;97015;-89
2022/08/22 16:34:44;;;;;;;6.15;4.55;;;22.40;99.90;;;20.95;87.53;99383.00;10269278;28;98322;-87
2022/08/22 16:40:00;;;;;;;5.20;4.07;;;22.40;99.90;;;20.85;88.47;99372.91;10261691;28;97192;-90
2022/08/22 16:45:23;;;;;;;6.93;4.40;;;22.30;99.90;;;20.75;88.90;99372.84;10276033;28;97193;-87
2022/08/22 16:50:34;;;;;;;6.28;3.70;;;22.20;99.90;;;20.71;89.52;99389.78;10242629;28;97731;-87
2022/08/22 16:55:48;;;;;;;10.00;5.13;;;22.10;99.90;;;20.61;90.16;99403.97;10268333;28;98313;-85
2022/08/22 17:01:21;;;;;;;9.88;6.68;;;22.10;99.90;;;20.30;91.88;99460.25;10277892;28;97745;-86
2022/08/22 17:06:46;;;;;;;13.20;7.53;;;21.80;99.90;;;20.02;93.97;99455.78;10258850;28;96763;-88
2022/08/22 17:12:26;;;;;;;9.43;6.47;;;21.60;99.90;;;19.73;95.21;99427.31;10275647;28;96879;-86
2022/08/22 17:18:25;;;;;;;8.57;5.70;;;21.20;99.90;;;19.49;97.58;99435.56;10284400;28;96663;-91
2022/08/22 17:24:07;;;;;;;10.15;6.22;;;21.00;99.90;;;19.39;99.05;99445.34;10236286;28;97318;-94
2022/08/22 17:29:41;;;;;;;9.13;6.05;;;20.90;99.90;;;19.31;100.00;99451.97;10277528;28;97099;-88
2022/08/22 17:35:13;;;;;;;5.90;4.35;;;20.80;99.90;;;19.17;100.00;99450.59;10275746;28;98321;-90
2022/08/22 17:40:25;;;;;;;14.25;5.75;;;20.60;99.90;;;19.09;100.00;99457.22;10262082;28;97729;-91
2022/08/22 17:45:55;;;;;;;9.60;5.10;;;20.50;99.90;;;19.06;100.00;99483.78;10244010;28;98075;-91
2022/08/22 17:52:24;;;;;;;;;;;;;;;;;;;;;
2022/08/22 17:58:16;;;;;;;6.70;4.22;;;20.60;99.90;;;18.88;100.00;99461.38;10242626;28;98455;-91
2022/08/22 18:03:56;;;;;;;4.45;2.90;;;20.40;99.90;;;18.72;100.00;99478.31;10234716;28;98760;-93
2022/08/22 18:09:08;;;;;;;4.22;2.22;;;20.20;99.90;;;18.56;100.00;99477.13;10222759;28;99003;-95
2022/08/22 18:14:30;;;;;;;2.70;1.98;;;20.00;99.90;;;18.39;100.00;99460.91;10248346;28;98765;-94
2022/08/22 18:20:24;;;;;;;2.88;1.88;;;19.80;99.90;;;18.26;100.00;99455.78;10249989;28;97991;-94
2022/08/22 18:25:44;;;;;;;2.70;1.85;;;19.70;99.90;;;18.15;100.00;99448.53;10209910;28;98255;-93
2022/08/22 18:31:02;;;;;;;3.05;1.90;;;19.70;99.90;;;18.13;100.00;99454.16;10260958;28;97254;-93
2022/08/22 18:36:27;;;;;;;3.75;1.90;;;19.60;99.90;;;18.10;100.00;99460.00;10237556;28;96653;-95
2022/08/22 18:41:39;;;;;;;3.95;1.70;;;19.60;99.90;;;18.14;100.00;99473.81;10215917;28;97588;-95
2022/08/22 18:47:03;;;;;;;2.08;1.58;;;19.60;99.90;;;18.14;100.00;99465.72;10219263;28;98739;-94
2022/08/22 18:52:19;;;;;;;3.55;1.48;;;19.70;99.90;;;18.21;100.00;99485.25;10249628;28;97198;-94
2022/08/22 18:57:51;;;;;;;2.70;1.90;;;19.70;99.90;;;18.25;100.00;99494.50;10217856;28;98101;-94
2022/08/22 19:03:26;;;;;;;2.53;1.70;;;19.80;99.90;;;18.31;100.00;99498.13;10222820;28;97291;-94
2022/08/22 19:09:10;;;;;;;2.60;1.88;;;19.80;99.90;;;18.36;100.00;99500.91;10244434;28;98478;-94
2022/08/22 19:14:28;;;;;;;2.05;1.40;;;19.80;99.90;;;18.37;100.00;99502.56;10238991;28;98434;-94
2022/08/22 19:25:27;;;;;;;6.10;2.22;;;19.90;99.90;;;18.45;100.00;99512.94;10239645;28;97690;-92
2022/08/22 19:30:35;;;;;;;7.90;3.03;;;20.00;99.90;;;18.51;100.00;99519.25;10206945;28;96853;-92
2022/08/22 19:35:43;;;;;;;2.97;2.20;;;20.00;99.90;;;18.58;100.00;99525.31;10226691;28;99098;-92
2022/08/22 19:40:54;;;;;;;2.58;1.73;;;20.10;99.90;;;18.60;100.00;99517.84;10245106;28;96902;-92
2022/08/22 19:46:09;;;;;;;5.03;2.13;;;20.20;99.90;;;18.60;100.00;99512.47;10225779;28;98280;-92
2022/08/22 19:51:21;;;;;;;3.00;1.95;;;20.20;99.90;;;18.64;100.00;99519.00;10209271;28;98650;-90
2022/08/22 19:56:48;;;;;;;17.40;3.35;;;20.20;99.90;;;18.67;100.00;99513.19;10229039;28;98390;-90
2022/08/22 20:02:34;;;;;;;3.20;2.22;;;20.20;99.90;;;18.69;100.00;99508.38;10206244;28;97759;-91
2022/08/22 20:08:16;;;;;;;5.32;2.10;;;20.30;99.90;;;18.73;100.00;99506.03;10218826;28;97777;-90
2022/08/22 20:13:25;;;;;;;3.90;2.75;;;20.30;99.90;;;18.72;100.00;99505.22;10213990;28;98942;-90
2022/08/22 20:19:07;;;;;;;4.43;3.17;;;20.30;99.90;;;18.76;100.00;99509.06;10221375;28;98890;-90
2022/08/22 20:24:39;;;;;;;7.05;3.45;;;20.40;99.90;;;18.77;100.00;99501.78;10216765;28;98441;-91
2022/08/22 20:29:50;;;;;;;6.43;3.97;;;20.30;99.90;;;18.75;100.00;99482.38;10215458;28;98308;-94
2022/08/22 20:34:57;;;;;;;5.40;3.70;;;20.30;99.90;;;18.73;100.00;99498.78;10252129;28;98770;-95
2022/08/22 20:40:46;;;;;;;63.72;6.85;;;20.30;99.90;;;18.77;100.00;99499.91;10211454;28;97484;-94
2022/08/22 20:46:14;;;;;;;41.28;5.22;;;20.30;99.90;;;18.76;100.00;99495.59;10239853;28;96864;-95
2022/08/22 20:51:23;;;;;;;3.40;2.33;;;20.40;99.90;;;18.75;100.00;99498.53;10226998;28;96700;-95
2022/08/22 20:56:39;;;;;;;6.40;2.60;;;20.30;99.90;;;18.74;100.00;99503.09;10206818;28;97418;-94
2022/08/22 21:02:08;;;;;;;4.90;2.70;;;20.30;99.90;;;18.72;100.00;99489.06;10241091;28;98153;-94
2022/08/22 21:07:18;;;;;;;4.95;2.53;;;20.30;99.90;;;18.69;100.00;99484.16;10255214;28;97889;-95
2022/08/22 21:12:22;;;;;;;4.25;2.70;;;20.30;99.90;;;18.67;100.00;99476.31;10221479;28;98405;-94
2022/08/22 21:17:32;;;;;;;5.15;2.80;;;20.30;99.90;;;18.66;100.00;99488.13;10256043;28;96909;-94
2022/08/22 21:22:38;;;;;;;4.03;2.55;;;20.20;99.90;;;18.60;100.00;99475.63;10236083;28;96641;-94
2022/08/22 21:27:47;;;;;;;6.28;3.22;;;20.20;99.90;;;18.60;100.00;99472.91;10239180;28;98665;-94
2022/08/22 21:32:51;;;;;;;9.63;3.38;;;20.20;99.90;;;18.60;100.00;99472.91;10223650;28;96837;-94
2022/08/22 21:37:59;;;;;;;3.92;2.72;;;20.20;99.90;;;18.58;100.00;99471.50;10242592;28;98607;-94
2022/08/22 21:43:09;;;;;;;89.97;8.60;;;20.20;99.90;;;18.55;100.00;99478.19;10260738;28;97654;-93
2022/08/22 21:48:39;;;;;;;5.88;2.92;;;20.10;99.90;;;18.55;100.00;99497.03;10229928;28;98643;-94
2022/08/22 21:53:42;;;;;;;5.53;3.20;;;20.10;99.90;;;18.46;100.00;99491.19;10245306;28;98863;-94
2022/08/22 21:58:46;;;;;;;4.95;2.90;;;20.00;99.90;;;18.42;100.00;99490.03;10215322;28;97395;-93
2022/08/22 22:03:50;;;;;;;5.95;3.40;;;20.00;99.90;;;18.43;100.00;99496.22;10241730;28;97238;-93
2022/08/22 22:08:54;;;;;;;4.38;3.28;;;20.00;99.90;;;18.45;100.00;99504.88;10231424;28;99255;-93
2022/08/22 22:13:57;;;;;;;5.00;2.92;;;20.00;99.90;;;18.42;100.00;99508.88;10236669;28;97651;-94
2022/08/22 22:19:00;;;;;;;8.82;3.83;;;20.00;99.90;;;18.38;100.00;99518.44;10231258;28;98005;-94
2022/08/22 22:24:03;;;;;;;6.30;4.18;;;19.90;99.90;;;18.34;100.00;99514.59;10228982;28;98417;-93